| time (UTC) | temp F | wind direction | speed knots | gust knots | rain 1hr in | rain 24hr in | rain mn in | humidity % | barometer mb |
| 20260506033020 | 61 | 66 | 0.0 | 0.0 | 0.00 | 0.39 | 0.21 | 47 | 1010.1 |
| 20260506031523 | 62 | 66 | 0.0 | 0.0 | 0.00 | 0.39 | 0.21 | 47 | 1009.8 |
| 20260506030112 | 62 | 51 | 0.0 | 0.0 | 0.00 | 0.42 | 0.21 | 46 | 1009.6 |
| 20260506024513 | 63 | 138 | 0.0 | 0.0 | 0.00 | 0.42 | 0.21 | 45 | 1009.4 |
| 20260506023011 | 63 | 300 | 0.0 | 0.0 | 0.00 | 0.42 | 0.21 | 43 | 1009.2 |
| 20260506021511 | 64 | 117 | 0.0 | 0.9 | 0.00 | 0.42 | 0.21 | 41 | 1008.9 |
| 20260506020015 | 65 | 179 | 0.0 | 0.9 | 0.00 | 0.48 | 0.21 | 38 | 1008.6 |
| 20260506014510 | 66 | 139 | 0.0 | 0.9 | 0.00 | 0.48 | 0.21 | 36 | 1008.5 |
| 20260506013010 | 67 | 85 | 0.0 | 0.9 | 0.00 | 0.48 | 0.21 | 33 | 1008.3 |
| 20260506011515 | 68 | 92 | 0.0 | 2.6 | 0.00 | 0.48 | 0.21 | 34 | 1008.2 |
| 20260506010022 | 69 | 41 | 0.0 | 0.9 | 0.00 | 0.48 | 0.21 | 35 | 1008.1 |
| 20260506004507 | 70 | 66 | 0.0 | 1.7 | 0.00 | 0.48 | 0.21 | 34 | 1007.9 |
| 20260506003006 | 71 | 161 | 0.0 | 1.7 | 0.00 | 0.48 | 0.21 | 33 | 1007.7 |
| 20260506001506 | 72 | 188 | 0.0 | 2.6 | 0.00 | 0.48 | 0.21 | 32 | 1007.6 |
| 20260506000009 | 74 | 53 | 0.0 | 1.7 | 0.00 | 0.50 | 0.21 | 33 | 1007.4 |
| 20260505234504 | 74 | 66 | 0.0 | 2.6 | 0.00 | 0.50 | 0.21 | 31 | 1007.3 |
| 20260505233008 | 75 | 194 | 0.0 | 2.6 | 0.00 | 0.50 | 0.21 | 31 | 1007.3 |
| 20260505231507 | 76 | 139 | 0.0 | 3.5 | 0.00 | 0.50 | 0.21 | 31 | 1007.2 |
| 20260505230003 | 76 | 93 | 0.0 | 2.6 | 0.00 | 0.50 | 0.21 | 30 | 1007.4 |
| 20260505224600 | 76 | 165 | 0.0 | 3.5 | 0.00 | 0.50 | 0.21 | 32 | 1007.5 |
| 20260505223100 | 76 | 204 | 0.0 | 7.0 | 0.00 | 0.50 | 0.21 | 32 | 1007.6 |
| 20260505223004 | 76 | 277 | 0.0 | 7.0 | 0.00 | 0.50 | 0.21 | 32 | 1007.7 |
| 20260505221601 | 75 | 59 | 0.0 | 5.2 | 0.00 | 0.50 | 0.21 | 34 | 1007.7 |
| 20260505220059 | 74 | 28 | 0.9 | 5.2 | 0.00 | 0.50 | 0.21 | 34 | 1007.9 |
| 20260505214624 | 76 | 210 | 0.0 | 1.7 | 0.00 | 0.50 | 0.21 | 32 | 1008.0 |
| 20260505213102 | 77 | 55 | 0.0 | 2.6 | 0.00 | 0.50 | 0.21 | 35 | 1008.0 |
| 20260505211554 | 74 | 58 | 0.0 | 1.7 | 0.00 | 0.50 | 0.21 | 42 | 1008.0 |
| 20260505210053 | 73 | 110 | 0.0 | 0.9 | 0.00 | 0.50 | 0.21 | 44 | 1008.2 |
| 20260505204552 | 73 | 141 | 0.0 | 1.7 | 0.00 | 0.50 | 0.21 | 47 | 1008.3 |
| 20260505203051 | 75 | 215 | 0.0 | 1.7 | 0.00 | 0.50 | 0.21 | 47 | 1008.4 |
| 20260505201556 | 75 | 153 | 0.0 | 2.6 | 0.00 | 0.50 | 0.21 | 42 | 1008.4 |
| 20260505200049 | 75 | 198 | 0.0 | 3.5 | 0.00 | 0.50 | 0.21 | 46 | 1008.6 |
| 20260505194547 | 75 | 153 | 0.0 | 1.7 | 0.00 | 0.50 | 0.21 | 45 | 1008.5 |
| 20260505193045 | 73 | 153 | 0.0 | 0.9 | 0.00 | 0.50 | 0.21 | 51 | 1008.7 |
| 20260505191548 | 71 | 96 | 0.0 | 0.9 | 0.00 | 0.50 | 0.21 | 54 | 1008.9 |
| 20260505190040 | 71 | 146 | 1.7 | 6.1 | 0.00 | 0.50 | 0.21 | 52 | 1009.2 |
| 20260505184543 | 70 | 136 | 0.0 | 5.2 | 0.00 | 0.50 | 0.21 | 56 | 1009.4 |
| 20260505183055 | 70 | 136 | 0.0 | 0.9 | 0.00 | 0.50 | 0.21 | 55 | 1009.7 |
| 20260505181535 | 69 | 185 | 0.0 | 3.5 | 0.00 | 0.50 | 0.21 | 57 | 1009.8 |
| 20260505180032 | 67 | 351 | 0.0 | 1.7 | 0.00 | 0.50 | 0.21 | 61 | 1009.8 |
| 20260505174531 | 66 | 200 | 0.0 | 2.6 | 0.00 | 0.50 | 0.21 | 61 | 1009.9 |
| 20260505173040 | 67 | 181 | 0.0 | 0.9 | 0.00 | 0.50 | 0.21 | 61 | 1010.0 |
| 20260505171541 | 67 | 168 | 0.9 | 5.2 | 0.00 | 0.50 | 0.21 | 61 | 1009.8 |
| 20260505170028 | 66 | 339 | 0.0 | 2.6 | 0.00 | 0.50 | 0.21 | 67 | 1009.9 |
| 20260505164523 | 65 | 132 | 0.0 | 2.6 | 0.00 | 0.50 | 0.21 | 71 | 1009.9 |
| 20260505163021 | 63 | 172 | 0.0 | 0.9 | 0.00 | 0.50 | 0.21 | 72 | 1009.7 |
| 20260505161518 | 62 | 345 | 0.0 | 0.9 | 0.00 | 0.50 | 0.21 | 76 | 1009.8 |
| 20260505153012 | 61 | 201 | 0.0 | 1.7 | 0.00 | 0.50 | 0.21 | 86 | 1009.5 |
| 20260505151508 | 60 | 136 | 0.0 | 0.9 | 0.00 | 0.50 | 0.21 | 86 | 1009.5 |
| 20260505124555 | 56 | 189 | 0.0 | 0.0 | 0.00 | 0.50 | 0.21 | 92 | 1008.2 |
| 20260505123054 | 56 | 189 | 0.0 | 0.0 | 0.00 | 0.50 | 0.21 | 92 | 1007.9 |
| 20260505121553 | 56 | 189 | 0.0 | 0.0 | 0.00 | 0.50 | 0.21 | 92 | 1008.0 |
| 20260505120109 | 56 | 189 | 0.0 | 0.0 | 0.01 | 0.50 | 0.21 | 92 | 1007.8 |
| 20260505114552 | 56 | 189 | 0.0 | 0.0 | 0.02 | 0.50 | 0.21 | 92 | 1007.3 |
| 20260505113051 | 56 | 189 | 0.0 | 0.0 | 0.03 | 0.50 | 0.21 | 91 | 1007.6 |
| 20260505111551 | 56 | 189 | 0.0 | 0.0 | 0.05 | 0.50 | 0.21 | 91 | 1007.6 |
| 20260505101546 | 56 | 173 | 0.0 | 2.6 | 0.03 | 0.45 | 0.16 | 91 | 1008.5 |
| 20260505100044 | 56 | 179 | 0.0 | 0.0 | 0.03 | 0.44 | 0.15 | 91 | 1008.2 |
| 20260505094543 | 56 | 151 | 0.0 | 0.9 | 0.04 | 0.44 | 0.15 | 91 | 1008.1 |
| 20260505093042 | 56 | 147 | 0.0 | 0.0 | 0.04 | 0.43 | 0.14 | 91 | 1008.4 |
| 20260505091539 | 57 | 147 | 0.0 | 0.0 | 0.05 | 0.42 | 0.13 | 91 | 1008.8 |
| 20260505090044 | 57 | 148 | 0.0 | 0.0 | 0.05 | 0.41 | 0.12 | 90 | 1008.7 |
| 20260505084534 | 57 | 148 | 0.0 | 1.7 | 0.06 | 0.40 | 0.11 | 89 | 1009.2 |
| 20260505083030 | 57 | 80 | 0.0 | 4.3 | 0.08 | 0.39 | 0.10 | 88 | 1009.9 |
| 20260505081535 | 57 | 176 | 0.9 | 5.2 | 0.07 | 0.37 | 0.08 | 88 | 1010.1 |
| 20260505080030 | 57 | 135 | 0.9 | 4.3 | 0.07 | 0.36 | 0.07 | 89 | 1010.8 |
| 20260505074524 | 57 | 182 | 0.0 | 2.6 | 0.07 | 0.34 | 0.05 | 90 | 1010.7 |
| 20260505073042 | 57 | 233 | 0.0 | 0.0 | 0.06 | 0.31 | 0.02 | 90 | 1011.1 |
| 20260505071522 | 57 | 242 | 0.0 | 0.0 | 0.07 | 0.30 | 0.01 | 90 | 1011.0 |
| 20260505070022 | 57 | 244 | 0.0 | 0.0 | 0.06 | 0.28 | 0.28 | 90 | 1010.8 |
| 20260505064534 | 57 | 244 | 0.0 | 0.0 | 0.06 | 0.27 | 0.27 | 90 | 1010.8 |
| 20260505063019 | 57 | 244 | 0.0 | 0.0 | 0.05 | 0.25 | 0.25 | 90 | 1010.9 |
| 20260505061530 | 57 | 244 | 0.0 | 0.0 | 0.03 | 0.23 | 0.23 | 89 | 1011.0 |
| 20260505060017 | 57 | 205 | 0.0 | 0.0 | 0.03 | 0.22 | 0.22 | 89 | 1010.8 |
| 20260505054518 | 57 | 115 | 0.0 | 0.0 | 0.03 | 0.21 | 0.21 | 90 | 1010.6 |
| 20260505053015 | 57 | 115 | 0.0 | 0.0 | 0.03 | 0.20 | 0.20 | 89 | 1010.5 |
| 20260505051515 | 57 | 115 | 0.0 | 0.0 | 0.05 | 0.20 | 0.20 | 87 | 1010.4 |
| 20260505041513 | 57 | 115 | 0.0 | 0.0 | 0.04 | 0.15 | 0.15 | 85 | 1010.7 |
| 20260505040009 | 57 | 130 | 0.0 | 0.0 | 0.02 | 0.13 | 0.13 | 83 | 1010.6 |
| 20260505034509 | 57 | 130 | 0.0 | 0.0 | 0.02 | 0.12 | 0.12 | 82 | 1010.2 |